Time;durP1;ratioP1;P1;durP2;ratioP2;P2;SDS_P1;SDS_P2;PMS_P1;PMS_P2;Temp;Humidity;BMP_temperature;BMP_pressure;BME280_temperature;BME280_humidity;BME280_pressure;Samples;Min_cycle;Max_cycle;Signal;HPM_P1;HPM_P2
2021/04/10 02:46:01;;;;;;;19.67;5.75;;;6.70;66.00;;;;;;5388175;24;20168;-69
2021/04/10 02:48:36;;;;;;;28.33;6.20;;;6.70;66.00;;;;;;4763162;30;20036;-69
2021/04/10 02:51:05;;;;;;;21.55;6.18;;;6.70;66.00;;;;;;4777598;30;20028;-69
2021/04/10 02:53:38;;;;;;;19.58;6.25;;;6.60;66.50;;;;;;4763806;30;20284;-69
2021/04/10 02:56:06;;;;;;;18.80;6.10;;;6.70;66.20;;;;;;4753956;30;20035;-69
2021/04/10 02:58:32;;;;;;;17.88;6.53;;;6.60;66.20;;;;;;4776915;30;20119;-69
2021/04/10 03:01:00;;;;;;;18.50;5.97;;;6.60;66.10;;;;;;4763650;30;20057;-69
2021/04/10 03:03:32;;;;;;;17.08;6.40;;;6.60;66.30;;;;;;4748642;30;20040;-70
2021/04/10 03:06:02;;;;;;;35.80;7.35;;;6.60;66.40;;;;;;4762762;30;20073;-69
2021/04/10 03:08:30;;;;;;;19.23;5.88;;;6.50;66.50;;;;;;4762640;30;20028;-69
2021/04/10 03:11:02;;;;;;;20.17;6.30;;;6.50;66.60;;;;;;4761967;30;20035;-69
2021/04/10 03:13:31;;;;;;;21.55;5.85;;;6.50;66.60;;;;;;4757184;30;20064;-69
2021/04/10 03:16:09;;;;;;;22.05;7.13;;;6.50;66.50;;;;;;4760177;30;20040;-69
2021/04/10 03:18:37;;;;;;;17.02;5.18;;;6.40;66.40;;;;;;4751021;30;20308;-69
2021/04/10 03:21:05;;;;;;;24.80;6.65;;;6.40;66.50;;;;;;4763535;30;20146;-69
2021/04/10 03:23:33;;;;;;;16.58;5.47;;;6.40;66.50;;;;;;4763384;30;20035;-69
2021/04/10 03:26:00;;;;;;;25.40;6.40;;;6.30;66.70;;;;;;4762449;30;20067;-69
2021/04/10 03:28:30;;;;;;;19.63;5.88;;;6.30;66.80;;;;;;4762571;30;20174;-69
2021/04/10 03:31:01;;;;;;;;;;;6.30;67.10;;;;;;4762623;30;20036;-69
2021/04/10 03:33:32;;;;;;;25.75;6.18;;;6.20;67.50;;;;;;4760228;30;20185;-70
2021/04/10 03:36:01;;;;;;;14.10;5.80;;;6.20;67.40;;;;;;4761908;30;20032;-69
2021/04/10 03:38:28;;;;;;;18.73;4.72;;;6.10;67.20;;;;;;4763083;30;20100;-69
2021/04/10 03:40:54;;;;;;;;;;;6.10;67.70;;;;;;4747719;30;20077;-69
2021/04/10 03:43:20;;;;;;;17.70;5.20;;;6.10;68.60;;;;;;4762110;30;20158;-69
2021/04/10 03:45:49;;;;;;;14.00;5.03;;;6.10;68.10;;;;;;4758180;30;20052;-69
2021/04/10 03:48:23;;;;;;;16.77;4.90;;;6.10;68.10;;;;;;4758908;30;20110;-69
2021/04/10 03:50:58;;;;;;;16.98;5.57;;;6.10;68.00;;;;;;4758968;30;20047;-70
2021/04/10 03:53:26;;;;;;;11.93;5.25;;;6.00;68.00;;;;;;4745358;30;20107;-69
2021/04/10 03:55:57;;;;;;;15.20;5.20;;;6.00;68.30;;;;;;4758915;30;20036;-69
2021/04/10 03:58:23;;;;;;;16.45;5.75;;;5.90;68.20;;;;;;4758713;30;20036;-69
2021/04/10 04:00:50;;;;;;;12.05;5.72;;;5.90;68.20;;;;;;4758316;30;20328;-69
2021/04/10 04:03:16;;;;;;;12.65;5.53;;;5.90;68.70;;;;;;4744062;30;20032;-69
2021/04/10 04:05:41;;;;;;;15.38;5.55;;;5.90;68.70;;;;;;4745069;30;20028;-69
2021/04/10 04:08:07;;;;;;;13.88;4.90;;;5.90;69.00;;;;;;4740759;30;20079;-69
2021/04/10 04:10:33;;;;;;;14.57;5.95;;;5.80;68.70;;;;;;4744827;30;20100;-70
2021/04/10 04:12:59;;;;;;;16.20;6.32;;;5.80;69.10;;;;;;4758460;30;20036;-69
2021/04/10 04:15:25;;;;;;;17.20;6.65;;;5.80;69.30;;;;;;4758277;30;20526;-70
2021/04/10 04:17:51;;;;;;;19.00;6.10;;;5.80;69.10;;;;;;4758152;30;20043;-69
2021/04/10 04:20:16;;;;;;;17.55;5.88;;;5.80;69.10;;;;;;4745154;30;20033;-69
2021/04/10 04:22:42;;;;;;;25.27;5.78;;;5.70;69.40;;;;;;4758188;30;20046;-70
2021/04/10 04:25:09;;;;;;;14.18;6.18;;;5.70;69.40;;;;;;4744561;30;20078;-70
2021/04/10 04:27:35;;;;;;;21.50;6.30;;;5.80;69.60;;;;;;4744658;30;20032;-70
2021/04/10 04:30:04;;;;;;;12.65;5.93;;;5.80;69.60;;;;;;4744298;30;20037;-69
2021/04/10 04:32:29;;;;;;;19.05;6.55;;;5.70;69.60;;;;;;4744605;30;20036;-70
2021/04/10 04:34:55;;;;;;;13.80;6.68;;;5.70;69.90;;;;;;4744545;30;20060;-69
2021/04/10 04:37:21;;;;;;;12.85;5.50;;;5.70;70.00;;;;;;4744498;30;20220;-70
2021/04/10 04:39:47;;;;;;;15.60;6.07;;;5.80;70.00;;;;;;4744342;30;20033;-69
2021/04/10 04:42:12;;;;;;;16.35;6.40;;;5.70;70.30;;;;;;4746849;30;20044;-69
2021/04/10 04:44:38;;;;;;;22.58;6.00;;;5.80;70.80;;;;;;4758058;30;20025;-70
2021/04/10 04:47:04;;;;;;;18.13;5.38;;;5.80;70.40;;;;;;4743813;30;20247;-69
2021/04/10 04:49:30;;;;;;;17.15;5.97;;;5.80;70.60;;;;;;4744389;30;20033;-69
2021/04/10 04:51:57;;;;;;;22.07;7.47;;;5.80;70.50;;;;;;4744387;30;20343;-70
2021/04/10 04:54:22;;;;;;;13.38;6.30;;;5.80;70.60;;;;;;4757879;30;20347;-69
2021/04/10 04:56:48;;;;;;;15.93;6.10;;;5.80;70.60;;;;;;4742779;30;20169;-69
2021/04/10 04:59:14;;;;;;;18.92;6.53;;;5.90;70.80;;;;;;4744161;30;20077;-69
2021/04/10 05:01:40;;;;;;;19.40;5.97;;;5.90;71.00;;;;;;4743170;30;20200;-70
2021/04/10 05:04:06;;;;;;;15.93;6.22;;;5.90;71.00;;;;;;4757687;30;20028;-70
2021/04/10 05:06:31;;;;;;;16.38;6.15;;;6.00;71.00;;;;;;4743870;30;20031;-69
2021/04/10 05:08:57;;;;;;;15.48;4.82;;;6.00;71.00;;;;;;4757718;30;20237;-69
2021/04/10 05:11:23;;;;;;;14.25;5.82;;;6.00;71.30;;;;;;4743673;30;20040;-69
2021/04/10 05:13:51;;;;;;;13.77;6.05;;;6.10;71.50;;;;;;4743857;30;20032;-70
2021/04/10 05:16:16;;;;;;;21.40;5.97;;;6.10;71.30;;;;;;4743518;30;20067;-69
2021/04/10 05:18:42;;;;;;;13.95;6.13;;;6.20;71.40;;;;;;4757237;30;20032;-70
2021/04/10 05:21:08;;;;;;;14.00;5.97;;;6.20;71.40;;;;;;4742688;30;20357;-70
2021/04/10 05:23:34;;;;;;;19.83;6.18;;;6.30;71.70;;;;;;4743717;30;20341;-70
2021/04/10 05:25:59;;;;;;;15.93;5.30;;;6.30;72.00;;;;;;4757110;30;20048;-70
2021/04/10 05:28:25;;;;;;;13.20;4.80;;;6.40;71.90;;;;;;4757201;30;20024;-70
2021/04/10 05:30:51;;;;;;;10.30;5.15;;;6.40;71.30;;;;;;4743297;30;20079;-70
2021/04/10 05:33:17;;;;;;;12.38;4.30;;;6.50;71.20;;;;;;4743704;30;20136;-70
2021/04/10 05:35:43;;;;;;;14.55;5.50;;;6.60;71.10;;;;;;4757003;30;20153;-70
2021/04/10 05:38:08;;;;;;;12.82;4.63;;;6.70;71.10;;;;;;4757084;30;20036;-70
2021/04/10 05:40:34;;;;;;;17.60;4.05;;;6.80;70.80;;;;;;4743367;30;20020;-70
2021/04/10 05:43:00;;;;;;;10.52;3.97;;;6.90;70.50;;;;;;4757155;30;20050;-70
2021/04/10 05:45:26;;;;;;;10.55;4.03;;;6.90;70.50;;;;;;4742170;30;20028;-70
2021/04/10 05:47:51;;;;;;;11.88;4.68;;;7.00;70.90;;;;;;4743403;30;20228;-70
2021/04/10 05:50:17;;;;;;;20.23;4.30;;;7.00;71.10;;;;;;4743419;30;20037;-70
2021/04/10 05:52:43;;;;;;;12.82;4.35;;;7.10;71.10;;;;;;4743150;30;20393;-70
2021/04/10 05:55:09;;;;;;;11.60;3.97;;;7.10;71.60;;;;;;4743562;30;20056;-70
2021/04/10 05:57:35;;;;;;;20.40;4.45;;;7.20;72.30;;;;;;4754869;30;20072;-70
2021/04/10 06:00:01;;;;;;;10.52;3.58;;;7.30;72.10;;;;;;4756752;30;20263;-70
2021/04/10 06:02:27;;;;;;;17.13;4.70;;;7.50;71.10;;;;;;4761396;30;20039;-70
2021/04/10 06:04:53;;;;;;;8.65;4.15;;;7.50;72.00;;;;;;4760959;30;20044;-70
2021/04/10 06:07:19;;;;;;;9.30;4.10;;;7.70;71.50;;;;;;4754791;30;20043;-70
2021/04/10 06:09:44;;;;;;;10.25;3.55;;;7.70;71.50;;;;;;4743280;30;20059;-71
2021/04/10 06:12:11;;;;;;;9.23;3.88;;;7.80;71.70;;;;;;4742224;30;20136;-71
2021/04/10 06:14:37;;;;;;;11.93;3.77;;;7.90;71.10;;;;;;4743355;30;20048;-70
2021/04/10 06:17:03;;;;;;;12.70;4.47;;;8.00;71.10;;;;;;4742870;30;20263;-70
2021/04/10 06:19:28;;;;;;;15.35;4.10;;;8.00;71.30;;;;;;4741908;30;20086;-70
2021/04/10 06:21:54;;;;;;;13.30;4.22;;;8.10;71.30;;;;;;4756737;30;20024;-70
2021/04/10 06:24:20;;;;;;;8.98;4.13;;;8.20;71.30;;;;;;4741958;30;20358;-71
2021/04/10 06:26:46;;;;;;;14.38;4.43;;;8.30;71.00;;;;;;4743183;30;20108;-72
2021/04/10 06:29:12;;;;;;;11.75;4.22;;;8.40;71.00;;;;;;4743999;30;20052;-69
2021/04/10 06:31:40;;;;;;;14.60;4.60;;;8.50;71.00;;;;;;4742655;30;20035;-70
2021/04/10 06:34:06;;;;;;;9.85;3.83;;;8.60;70.20;;;;;;4756701;30;20037;-70
2021/04/10 06:36:32;;;;;;;13.77;3.60;;;8.70;70.20;;;;;;4756335;30;20382;-70
2021/04/10 06:38:58;;;;;;;10.75;4.20;;;8.80;70.00;;;;;;4742413;30;20048;-70
2021/04/10 06:41:24;;;;;;;6.70;3.42;;;8.90;69.90;;;;;;4741858;30;20036;-70
2021/04/10 06:43:50;;;;;;;8.45;3.70;;;9.00;69.30;;;;;;4756242;30;20374;-70
2021/04/10 06:46:17;;;;;;;10.68;3.47;;;9.10;68.80;;;;;;4755793;30;20064;-70
2021/04/10 06:48:45;;;;;;;10.15;3.45;;;9.30;68.40;;;;;;4759172;30;20067;-70
2021/04/10 06:51:13;;;;;;;10.50;3.75;;;9.40;69.00;;;;;;4741423;30;20037;-70
2021/04/10 06:53:43;;;;;;;12.27;3.60;;;9.50;68.50;;;;;;4755176;30;20107;-70
2021/04/10 06:56:10;;;;;;;11.60;3.72;;;9.60;68.20;;;;;;4739544;30;20059;-70
2021/04/10 06:58:53;;;;;;;11.73;3.42;;;9.70;67.50;;;;;;4742762;30;20051;-70
2021/04/10 07:01:19;;;;;;;7.13;3.03;;;9.80;66.10;;;;;;4753920;30;20038;-70
2021/04/10 07:03:49;;;;;;;9.45;3.67;;;9.90;66.40;;;;;;4742706;30;20041;-70
2021/04/10 07:06:15;;;;;;;11.27;3.28;;;10.00;66.60;;;;;;4742711;30;20040;-70
2021/04/10 07:08:41;;;;;;;14.75;4.13;;;10.20;65.80;;;;;;4756323;30;20576;-70
2021/04/10 07:11:07;;;;;;;14.48;3.22;;;10.50;64.70;;;;;;4742323;30;20087;-70
2021/04/10 07:13:33;;;;;;;7.97;3.40;;;10.80;65.00;;;;;;4755264;30;20044;-71
2021/04/10 07:16:02;;;;;;;7.32;3.17;;;11.00;63.10;;;;;;4755689;30;20051;-70
2021/04/10 07:18:32;;;;;;;9.45;3.92;;;11.10;62.10;;;;;;4755537;30;20028;-71
2021/04/10 07:21:15;;;;;;;6.07;3.50;;;11.30;61.20;;;;;;4756046;30;20223;-71
2021/04/10 07:23:48;;;;;;;10.25;3.78;;;11.50;62.40;;;;;;4749409;30;20033;-71
2021/04/10 07:26:15;;;;;;;8.98;2.95;;;11.50;61.70;;;;;;4759335;30;20043;-71
2021/04/10 07:28:41;;;;;;;9.15;3.90;;;11.50;61.90;;;;;;4759612;30;20250;-71
2021/04/10 07:31:09;;;;;;;5.70;2.60;;;11.60;61.60;;;;;;4744447;30;20039;-70
2021/04/10 07:33:37;;;;;;;10.95;3.63;;;11.60;61.70;;;;;;4759334;30;20398;-70
2021/04/10 07:36:06;;;;;;;7.25;3.42;;;11.60;61.00;;;;;;4745711;30;20033;-71
2021/04/10 07:38:37;;;;;;;10.15;3.47;;;11.70;61.10;;;;;;4759325;30;20047;-71
2021/04/10 07:41:21;;;;;;;10.88;3.38;;;11.80;60.50;;;;;;4745712;30;20032;-71
2021/04/10 07:43:47;;;;;;;11.43;3.92;;;11.80;60.90;;;;;;4740174;30;20365;-72
2021/04/10 07:46:17;;;;;;;11.32;3.53;;;11.90;59.50;;;;;;4758709;30;20064;-71
2021/04/10 07:49:05;;;;;;;17.52;4.00;;;12.00;59.60;;;;;;4759136;30;20036;-70
2021/04/10 07:51:33;;;;;;;9.68;3.85;;;12.10;59.30;;;;;;4742532;30;20049;-71
2021/04/10 07:54:00;;;;;;;9.50;3.33;;;12.20;59.10;;;;;;4759117;30;20045;-72
2021/04/10 07:56:46;;;;;;;10.00;3.92;;;12.30;58.30;;;;;;4758942;30;20108;-72
2021/04/10 07:59:12;;;;;;;12.27;3.75;;;12.40;58.80;;;;;;4729598;30;20033;-71
2021/04/10 08:01:37;;;;;;;8.85;3.10;;;12.50;58.60;;;;;;4744993;30;20200;-71
2021/04/10 08:04:13;;;;;;;11.15;4.07;;;12.60;57.30;;;;;;4745306;30;20084;-72
2021/04/10 08:07:02;;;;;;;9.63;4.25;;;12.60;58.70;;;;;;4758738;30;20036;-72
2021/04/10 08:09:36;;;;;;;8.07;3.85;;;12.80;58.50;;;;;;4740922;30;20031;-72
2021/04/10 08:12:09;;;;;;;8.40;3.40;;;12.90;56.40;;;;;;4743324;30;20073;-72
2021/04/10 08:14:42;;;;;;;10.02;4.03;;;13.00;57.70;;;;;;4758036;30;20040;-72
2021/04/10 08:17:08;;;;;;;9.82;3.78;;;13.00;56.00;;;;;;4744127;30;20054;-71
2021/04/10 08:19:35;;;;;;;14.82;4.43;;;13.10;55.60;;;;;;4743551;30;20028;-72
2021/04/10 08:22:02;;;;;;;7.45;3.97;;;13.20;56.20;;;;;;4744252;30;20044;-71
2021/04/10 08:24:29;;;;;;;10.52;4.65;;;13.30;55.10;;;;;;4744769;30;20251;-71
2021/04/10 08:27:07;;;;;;;7.80;3.60;;;13.30;55.40;;;;;;4758681;30;20379;-73
2021/04/10 08:29:35;;;;;;;10.63;3.72;;;13.40;55.10;;;;;;4758486;30;20072;-72
2021/04/10 08:32:02;;;;;;;9.60;3.95;;;13.50;55.90;;;;;;4757892;30;20041;-72
2021/04/10 08:34:28;;;;;;;10.43;3.90;;;13.70;54.50;;;;;;4748725;30;20039;-71
2021/04/10 08:36:57;;;;;;;12.33;4.13;;;13.80;54.70;;;;;;4742021;30;20048;-72
2021/04/10 08:39:27;;;;;;;12.88;3.45;;;13.90;53.30;;;;;;4744071;30;20271;-72
2021/04/10 08:41:55;;;;;;;12.23;4.10;;;14.00;54.00;;;;;;4744082;30;20056;-71
2021/04/10 08:44:25;;;;;;;8.63;3.85;;;14.20;53.80;;;;;;4744055;30;20054;-73
2021/04/10 08:46:51;;;;;;;8.23;4.15;;;14.30;53.40;;;;;;4742723;30;20060;-72
2021/04/10 08:49:19;;;;;;;9.90;4.33;;;14.50;52.60;;;;;;4744577;30;20120;-73
2021/04/10 08:51:48;;;;;;;7.25;3.85;;;14.70;52.40;;;;;;4758009;30;20039;-72
2021/04/10 08:54:14;;;;;;;11.82;4.10;;;14.80;51.70;;;;;;4758087;30;20332;-72
2021/04/10 08:56:40;;;;;;;14.63;4.33;;;15.00;51.70;;;;;;4743578;30;20028;-71
2021/04/10 08:59:13;;;;;;;11.37;6.07;;;15.00;50.70;;;;;;4743639;30;20031;-77
2021/04/10 09:01:42;;;;;;;11.05;4.95;;;15.20;51.30;;;;;;4756960;30;20220;-73
2021/04/10 09:04:10;;;;;;;12.20;4.50;;;15.50;51.30;;;;;;4742959;30;20247;-73
2021/04/10 09:06:36;;;;;;;8.38;4.05;;;15.80;50.60;;;;;;4755418;30;20277;-73
2021/04/10 09:09:11;;;;;;;25.70;5.20;;;16.40;49.90;;;;;;4743495;30;20160;-75
2021/04/10 09:11:38;;;;;;;7.82;4.15;;;17.20;47.80;;;;;;4759879;30;20304;-73
2021/04/10 09:14:04;;;;;;;8.65;3.55;;;18.10;45.50;;;;;;4744240;30;20029;-72
2021/04/10 09:16:41;;;;;;;12.30;3.93;;;18.80;43.00;;;;;;4757188;30;20347;-73
2021/04/10 09:19:10;;;;;;;6.97;3.45;;;19.40;40.90;;;;;;4761316;30;20032;-73
2021/04/10 09:21:42;;;;;;;12.27;3.97;;;20.20;40.40;;;;;;4743221;30;20386;-73
2021/04/10 09:24:26;;;;;;;7.88;3.17;;;20.70;37.70;;;;;;4743713;30;20324;-72
2021/04/10 09:27:02;;;;;;;14.32;4.22;;;20.70;37.10;;;;;;4743916;30;20040;-72
2021/04/10 09:29:36;;;;;;;12.57;4.47;;;20.70;36.30;;;;;;4757485;30;20033;-73
2021/04/10 09:32:02;;;;;;;12.48;3.78;;;20.80;36.70;;;;;;4743096;30;20039;-72
2021/04/10 09:34:51;;;;;;;13.18;4.00;;;21.20;36.10;;;;;;4741921;30;20037;-73
2021/04/10 09:37:20;;;;;;;8.02;3.55;;;21.40;35.60;;;;;;4756129;30;20040;-72
2021/04/10 09:40:00;;;;;;;7.55;3.65;;;21.50;34.40;;;;;;4757090;30;20040;-73
2021/04/10 09:42:38;;;;;;;9.40;3.58;;;21.80;34.50;;;;;;4757241;30;20135;-73
2021/04/10 09:45:07;;;;;;;10.43;3.72;;;22.00;34.80;;;;;;4743231;30;20161;-72
2021/04/10 09:47:51;;;;;;;6.07;3.60;;;22.30;33.50;;;;;;4742078;30;20083;-73
2021/04/10 09:50:18;;;;;;;10.57;3.92;;;22.70;33.20;;;;;;4756481;30;20052;-72
2021/04/10 09:52:50;;;;;;;11.95;5.50;;;22.80;33.30;;;;;;4756671;30;20020;-72
2021/04/10 09:55:19;;;;;;;10.27;7.07;;;22.90;33.40;;;;;;4756411;30;20078;-73
2021/04/10 09:57:51;;;;;;;11.18;3.95;;;23.00;32.30;;;;;;4755572;30;20040;-73
2021/04/10 10:00:27;;;;;;;7.93;3.40;;;23.10;33.00;;;;;;4756359;30;20040;-73
2021/04/10 10:02:53;;;;;;;12.07;3.75;;;23.10;32.70;;;;;;4745091;30;20216;-73
2021/04/10 10:05:20;;;;;;;11.02;3.38;;;23.00;31.90;;;;;;4741818;30;20165;-73
2021/04/10 10:07:46;;;;;;;;;;;22.90;32.40;;;;;;4756468;30;20086;-72
2021/04/10 10:10:12;;;;;;;9.60;3.70;;;22.90;33.40;;;;;;4738977;30;19910;-73
2021/04/10 10:12:38;;;;;;;16.10;4.43;;;22.90;32.50;;;;;;4742223;30;20036;-73
2021/04/10 10:15:18;;;;;;;8.55;3.35;;;23.30;32.10;;;;;;4753549;30;20442;-74
2021/04/10 10:17:44;;;;;;;10.45;3.83;;;23.70;31.30;;;;;;4755766;30;20033;-73
2021/04/10 10:20:11;;;;;;;14.93;3.95;;;23.80;30.90;;;;;;4741679;30;20385;-73
2021/04/10 10:22:37;;;;;;;6.93;3.45;;;23.80;31.20;;;;;;4762106;30;20067;-73
2021/04/10 10:25:04;;;;;;;6.55;3.65;;;23.70;31.50;;;;;;4755901;30;20020;-73
2021/04/10 10:27:42;;;;;;;9.40;4.05;;;24.00;31.20;;;;;;4742596;30;20256;-72
2021/04/10 10:30:22;;;;;;;13.02;3.95;;;24.30;31.10;;;;;;4763234;30;20033;-74
2021/04/10 10:32:49;;;;;;;8.63;4.00;;;24.90;30.00;;;;;;4740754;30;20070;-73
2021/04/10 10:35:17;;;;;;;8.52;3.92;;;25.40;30.00;;;;;;4755797;30;20037;-73
2021/04/10 10:37:49;;;;;;;9.55;3.72;;;26.10;29.60;;;;;;4741749;30;20109;-74
2021/04/10 10:40:25;;;;;;;10.70;4.68;;;26.60;28.20;;;;;;4756019;30;20111;-74
2021/04/10 10:43:02;;;;;;;12.48;3.65;;;26.90;27.70;;;;;;4739537;30;20323;-75
2021/04/10 10:45:41;;;;;;;6.80;3.22;;;27.00;28.20;;;;;;4741609;30;20025;-74
2021/04/10 10:48:23;;;;;;;6.97;3.67;;;27.20;27.80;;;;;;4763943;30;20074;-74
2021/04/10 10:50:54;;;;;;;8.43;4.05;;;27.50;26.80;;;;;;4757650;30;20276;-75
2021/04/10 10:53:25;;;;;;;12.98;3.70;;;27.50;27.80;;;;;;4742630;30;20040;-74
2021/04/10 10:56:04;;;;;;;9.65;3.20;;;27.70;27.20;;;;;;4757569;30;20307;-74
2021/04/10 10:58:34;;;;;;;11.32;3.55;;;27.90;26.60;;;;;;4754671;30;20040;-74
2021/04/10 11:01:00;;;;;;;9.50;3.15;;;28.00;26.60;;;;;;4745862;30;20097;-73
2021/04/10 11:03:27;;;;;;;9.05;3.38;;;28.10;26.60;;;;;;4745924;30;20340;-74
2021/04/10 11:05:54;;;;;;;8.77;3.58;;;27.90;26.30;;;;;;4745864;30;20354;-74
2021/04/10 11:08:22;;;;;;;9.73;3.88;;;27.70;26.60;;;;;;4746051;30;20086;-74
2021/04/10 11:10:51;;;;;;;9.20;3.60;;;27.70;27.00;;;;;;4745940;30;20245;-75
2021/04/10 11:13:18;;;;;;;9.57;3.15;;;27.60;26.90;;;;;;4759613;30;20032;-74
2021/04/10 11:15:46;;;;;;;11.98;3.70;;;27.70;27.30;;;;;;4759443;30;20036;-74
2021/04/10 11:18:29;;;;;;;8.90;3.40;;;27.50;26.60;;;;;;4759259;30;20049;-74
2021/04/10 11:21:19;;;;;;;9.50;2.97;;;27.60;26.90;;;;;;4748686;30;20087;-74
2021/04/10 11:23:57;;;;;;;6.88;2.92;;;27.60;26.40;;;;;;4740584;30;20221;-75
2021/04/10 11:26:40;;;;;;;7.80;3.67;;;27.60;26.90;;;;;;4759310;30;20099;-75
2021/04/10 11:29:35;;;;;;;6.85;3.05;;;27.90;26.50;;;;;;4745918;30;20048;-74
2021/04/10 11:32:11;;;;;;;13.43;2.97;;;28.30;25.90;;;;;;4726165;30;20045;-74
2021/04/10 11:34:52;;;;;;;8.07;3.50;;;28.50;26.50;;;;;;4726160;30;20041;-74
2021/04/10 11:37:22;;;;;;;11.40;2.90;;;28.70;26.10;;;;;;4726209;30;20326;-74
2021/04/10 11:39:57;;;;;;;11.75;3.05;;;28.90;26.20;;;;;;4725908;30;20496;-75
2021/04/10 11:42:34;;;;;;;11.55;3.60;;;28.90;26.10;;;;;;4726386;30;20041;-74
2021/04/10 11:45:04;;;;;;;7.28;2.70;;;28.90;25.60;;;;;;4725755;30;20089;-74
2021/04/10 11:47:32;;;;;;;10.27;3.50;;;28.90;25.40;;;;;;4711330;30;20045;-74
2021/04/10 11:50:07;;;;;;;7.95;2.95;;;28.70;26.00;;;;;;4725650;30;20041;-74
2021/04/10 11:52:34;;;;;;;9.95;3.45;;;28.90;25.50;;;;;;4723233;30;20108;-74
2021/04/10 11:55:02;;;;;;;11.38;2.72;;;29.00;25.00;;;;;;4725644;30;20060;-74
2021/04/10 11:57:32;;;;;;;7.78;3.20;;;29.00;25.00;;;;;;4725865;30;20047;-75
2021/04/10 12:00:10;;;;;;;7.53;2.90;;;28.90;25.00;;;;;;4720334;30;20065;-75
2021/04/10 12:02:39;;;;;;;8.20;2.75;;;28.50;25.20;;;;;;4711083;30;20056;-73
2021/04/10 12:05:24;;;;;;;7.35;3.15;;;28.50;25.60;;;;;;4725482;30;20040;-73
2021/04/10 12:08:06;;;;;;;11.05;3.15;;;28.20;25.60;;;;;;4730805;30;20040;-74
2021/04/10 12:10:33;;;;;;;9.43;2.88;;;28.30;25.60;;;;;;4743423;30;20040;-73
2021/04/10 12:13:00;;;;;;;10.57;3.28;;;28.30;25.60;;;;;;4758311;30;20100;-73
2021/04/10 12:15:34;;;;;;;7.65;3.20;;;27.90;26.00;;;;;;4757974;30;20041;-73
2021/04/10 12:18:00;;;;;;;8.52;3.20;;;28.00;25.50;;;;;;4757781;30;20073;-73
2021/04/10 12:20:26;;;;;;;5.60;2.72;;;27.80;25.40;;;;;;4758366;30;20068;-73
2021/04/10 12:22:52;;;;;;;9.27;2.60;;;27.80;26.00;;;;;;4745056;30;20063;-73
2021/04/10 12:25:18;;;;;;;10.07;3.08;;;27.80;25.50;;;;;;4744855;30;20028;-73
2021/04/10 12:27:44;;;;;;;7.63;3.07;;;27.60;25.50;;;;;;4744787;30;20070;-73
2021/04/10 12:30:11;;;;;;;10.60;2.90;;;27.10;25.60;;;;;;4757863;30;20040;-73
2021/04/10 12:32:36;;;;;;;9.40;3.35;;;26.50;25.90;;;;;;4757999;30;20051;-73
2021/04/10 12:35:03;;;;;;;16.20;4.72;;;26.10;26.40;;;;;;4744407;30;20033;-73
2021/04/10 12:37:29;;;;;;;10.95;5.28;;;25.80;27.40;;;;;;4757938;30;20313;-73
2021/04/10 12:39:55;;;;;;;10.10;4.40;;;25.40;27.00;;;;;;4758044;30;20064;-74
2021/04/10 12:42:20;;;;;;;15.52;2.70;;;25.00;27.60;;;;;;4744460;30;20055;-72
2021/04/10 12:44:46;;;;;;;12.85;2.72;;;24.70;27.80;;;;;;4743694;30;20029;-74
2021/04/10 12:47:19;;;;;;;8.65;2.90;;;24.50;27.90;;;;;;4743397;30;20059;-74
2021/04/10 12:49:46;;;;;;;7.07;2.22;;;24.40;28.00;;;;;;4756356;30;20041;-73
2021/04/10 12:52:12;;;;;;;10.25;1.98;;;24.10;28.10;;;;;;4757276;30;20036;-73
2021/04/10 12:54:38;;;;;;;9.45;2.78;;;24.00;28.20;;;;;;4743959;30;20192;-75
2021/04/10 12:57:05;;;;;;;7.53;3.13;;;23.90;28.50;;;;;;4742505;30;20040;-73
2021/04/10 12:59:32;;;;;;;10.90;7.13;;;23.70;28.90;;;;;;4757709;30;20047;-73
2021/04/10 13:01:59;;;;;;;15.63;3.65;;;23.60;28.40;;;;;;4743278;30;20032;-74
2021/04/10 13:04:25;;;;;;;;;;;23.50;28.00;;;;;;4743888;30;20028;-73
2021/04/10 13:06:51;;;;;;;9.35;2.33;;;23.40;26.90;;;;;;4742684;30;19911;-73
2021/04/10 13:09:17;;;;;;;11.13;2.67;;;23.30;27.50;;;;;;4743486;30;20033;-73
2021/04/10 13:11:43;;;;;;;5.50;2.75;;;23.20;28.30;;;;;;4742401;30;20063;-73
2021/04/10 13:14:09;;;;;;;18.63;2.88;;;23.00;28.00;;;;;;4743946;30;20032;-73
2021/04/10 13:16:34;;;;;;;9.40;2.65;;;23.00;27.80;;;;;;4756986;30;20037;-74
2021/04/10 13:19:01;;;;;;;5.05;2.13;;;23.00;27.50;;;;;;4757466;30;20220;-73
2021/04/10 13:21:27;;;;;;;5.53;1.98;;;22.90;27.00;;;;;;4743211;30;20044;-72
2021/04/10 13:23:52;;;;;;;12.73;4.18;;;22.90;27.80;;;;;;4757666;30;20037;-73
2021/04/10 13:26:18;;;;;;;7.05;2.70;;;22.90;27.50;;;;;;4757043;30;20060;-73
2021/04/10 13:28:44;;;;;;;6.75;2.65;;;22.90;27.30;;;;;;4743613;30;20096;-72
2021/04/10 13:31:09;;;;;;;4.13;2.28;;;22.90;27.10;;;;;;4743371;30;20212;-73
2021/04/10 13:33:35;;;;;;;5.88;2.33;;;22.90;27.80;;;;;;4757240;30;20045;-72
2021/04/10 13:36:01;;;;;;;5.32;2.35;;;22.80;27.50;;;;;;4757038;30;20036;-72
2021/04/10 13:38:27;;;;;;;4.95;2.33;;;22.80;27.60;;;;;;4743543;30;20031;-74
2021/04/10 13:40:52;;;;;;;8.27;2.70;;;22.70;27.90;;;;;;4757010;30;20124;-72
2021/04/10 13:43:18;;;;;;;14.27;2.55;;;22.70;28.30;;;;;;4742513;30;20025;-73
2021/04/10 13:45:44;;;;;;;7.30;2.50;;;22.70;28.60;;;;;;4742933;30;20114;-73
2021/04/10 13:48:10;;;;;;;14.80;2.45;;;22.60;28.80;;;;;;4741853;30;20110;-72
2021/04/10 13:50:35;;;;;;;6.30;2.67;;;22.70;29.00;;;;;;4741890;30;20039;-73
2021/04/10 13:53:01;;;;;;;7.82;3.70;;;22.70;28.90;;;;;;4756968;30;20036;-73
2021/04/10 13:55:27;;;;;;;6.25;2.60;;;22.70;29.20;;;;;;4756602;30;20090;-72
2021/04/10 13:57:52;;;;;;;11.93;2.80;;;22.70;29.40;;;;;;4742969;30;20090;-73
2021/04/10 14:00:19;;;;;;;13.82;3.10;;;22.70;29.10;;;;;;4756651;30;20628;-73
2021/04/10 14:02:45;;;;;;;5.30;2.83;;;22.60;28.80;;;;;;4740965;30;20050;-73
2021/04/10 14:05:18;;;;;;;7.30;2.88;;;22.60;29.40;;;;;;4743122;30;20029;-73
2021/04/10 14:07:44;;;;;;;10.13;3.00;;;22.60;29.50;;;;;;4756128;30;20240;-73
2021/04/10 14:10:17;;;;;;;10.40;2.67;;;22.60;29.40;;;;;;4756396;30;20056;-73
2021/04/10 14:12:43;;;;;;;7.40;2.30;;;22.70;29.20;;;;;;4737926;30;20095;-73
2021/04/10 14:15:13;;;;;;;8.10;2.78;;;22.70;28.90;;;;;;4742827;30;20051;-73
2021/04/10 14:17:39;;;;;;;6.07;2.38;;;22.70;28.90;;;;;;4756461;30;20032;-72
2021/04/10 14:20:07;;;;;;;6.18;3.33;;;22.70;28.30;;;;;;4742431;30;20025;-72
2021/04/10 14:22:33;;;;;;;10.10;2.45;;;22.70;28.80;;;;;;4750845;30;20093;-73
2021/04/10 14:24:58;;;;;;;8.25;2.58;;;22.60;29.00;;;;;;4742823;30;20029;-72
2021/04/10 14:27:24;;;;;;;7.80;2.67;;;22.60;28.40;;;;;;4742912;30;20370;-72
2021/04/10 14:29:50;;;;;;;19.25;2.65;;;22.60;28.40;;;;;;4742887;30;20103;-73
2021/04/10 14:32:16;;;;;;;6.82;2.40;;;22.50;28.70;;;;;;4742752;30;20358;-74
2021/04/10 14:34:42;;;;;;;8.02;2.45;;;22.50;29.10;;;;;;4745324;30;20033;-72
2021/04/10 14:37:08;;;;;;;6.38;2.50;;;22.50;28.90;;;;;;4746482;30;20041;-72
2021/04/10 14:39:34;;;;;;;6.13;2.53;;;22.50;29.00;;;;;;4745075;30;20035;-71
2021/04/10 14:42:01;;;;;;;6.60;2.35;;;22.50;29.50;;;;;;4746484;30;20041;-72
2021/04/10 14:44:27;;;;;;;13.18;2.88;;;22.50;29.30;;;;;;4759868;30;20512;-72
2021/04/10 14:46:53;;;;;;;6.20;2.78;;;22.50;29.70;;;;;;4745920;30;20060;-72
2021/04/10 14:49:20;;;;;;;5.88;2.40;;;22.50;30.10;;;;;;4746105;30;20063;-72
2021/04/10 14:51:47;;;;;;;7.07;2.17;;;22.40;29.30;;;;;;4746375;30;20049;-73
2021/04/10 14:54:13;;;;;;;5.70;2.00;;;22.40;29.90;;;;;;4746160;30;20336;-72
2021/04/10 14:56:38;;;;;;;7.78;2.25;;;22.40;29.30;;;;;;4745825;30;20051;-73
2021/04/10 14:59:04;;;;;;;7.05;2.40;;;22.30;30.20;;;;;;4746218;30;20025;-73
2021/04/10 15:01:30;;;;;;;9.07;2.67;;;22.40;30.10;;;;;;4746031;30;20028;-72
2021/04/10 15:03:56;;;;;;;8.23;2.13;;;22.40;29.70;;;;;;4759680;30;20035;-72
2021/04/10 15:06:22;;;;;;;6.43;2.25;;;22.30;29.10;;;;;;4759001;30;20342;-73
2021/04/10 15:08:48;;;;;;;6.63;1.70;;;22.30;29.40;;;;;;4745656;30;20024;-73
2021/04/10 15:11:14;;;;;;;7.18;2.25;;;22.20;29.60;;;;;;4745764;30;20284;-73
2021/04/10 15:14:10;;;;;;;11.48;2.42;;;22.20;29.70;;;;;;4759116;30;20043;-72
2021/04/10 15:16:36;;;;;;;6.18;2.10;;;22.20;30.00;;;;;;4725609;30;20093;-72
2021/04/10 15:19:05;;;;;;;6.82;2.30;;;22.30;29.90;;;;;;4711830;30;20048;-72
2021/04/10 15:21:31;;;;;;;8.20;2.10;;;22.20;29.80;;;;;;4726435;30;20224;-73
2021/04/10 15:24:00;;;;;;;8.55;2.53;;;22.20;29.10;;;;;;4726332;30;20115;-72
2021/04/10 15:26:26;;;;;;;20.20;3.80;;;22.10;28.70;;;;;;4711792;30;20133;-72
2021/04/10 15:28:52;;;;;;;9.57;2.25;;;22.10;29.10;;;;;;4726198;30;20037;-73
2021/04/10 15:31:17;;;;;;;6.30;2.45;;;22.10;29.00;;;;;;4726133;30;20328;-73
2021/04/10 15:33:52;;;;;;;9.60;2.42;;;22.00;28.20;;;;;;4711537;30;20037;-72
2021/04/10 15:36:22;;;;;;;7.28;2.28;;;22.00;28.30;;;;;;4726130;30;20320;-72
2021/04/10 15:38:47;;;;;;;6.07;2.25;;;21.90;28.00;;;;;;4726104;30;20056;-72